sensor_id;sensor_type;location;lat;lon;timestamp;pressure;altitude;pressure_sealevel;temperature;humidity
28911;BME280;16028;42.642;23.310;2023-05-25T00:00:17;93959.72;;;15.92;89.46
28911;BME280;16028;42.642;23.310;2023-05-25T00:02:45;93960.81;;;15.82;89.97
28911;BME280;16028;42.642;23.310;2023-05-25T00:05:12;93967.56;;;15.77;90.06
28911;BME280;16028;42.642;23.310;2023-05-25T00:07:39;93964.84;;;15.70;90.30
28911;BME280;16028;42.642;23.310;2023-05-25T00:10:07;93968.19;;;15.64;90.48
28911;BME280;16028;42.642;23.310;2023-05-25T00:12:34;93964.28;;;15.60;90.65
28911;BME280;16028;42.642;23.310;2023-05-25T00:15:02;93969.84;;;15.65;89.99
28911;BME280;16028;42.642;23.310;2023-05-25T00:17:30;93965.22;;;15.67;90.14
28911;BME280;16028;42.642;23.310;2023-05-25T00:19:58;93972.38;;;15.73;89.65
28911;BME280;16028;42.642;23.310;2023-05-25T00:22:32;93976.16;;;15.71;90.10
28911;BME280;16028;42.642;23.310;2023-05-25T00:24:59;93974.63;;;15.62;90.67
28911;BME280;16028;42.642;23.310;2023-05-25T00:27:26;93987.00;;;15.53;91.64
28911;BME280;16028;42.642;23.310;2023-05-25T00:29:52;93981.47;;;15.48;92.32
28911;BME280;16028;42.642;23.310;2023-05-25T00:32:19;93970.03;;;15.41;92.33
28911;BME280;16028;42.642;23.310;2023-05-25T00:34:48;93982.38;;;15.32;92.58
28911;BME280;16028;42.642;23.310;2023-05-25T00:37:15;93983.28;;;15.25;93.01
28911;BME280;16028;42.642;23.310;2023-05-25T00:39:42;93978.72;;;15.19;93.40
28911;BME280;16028;42.642;23.310;2023-05-25T00:42:09;93976.94;;;15.19;93.98
28911;BME280;16028;42.642;23.310;2023-05-25T00:44:36;93981.03;;;15.22;94.14
28911;BME280;16028;42.642;23.310;2023-05-25T00:47:03;93984.44;;;15.22;94.36
28911;BME280;16028;42.642;23.310;2023-05-25T00:49:34;93986.06;;;15.23;94.43
28911;BME280;16028;42.642;23.310;2023-05-25T00:52:04;93983.97;;;15.19;94.55
28911;BME280;16028;42.642;23.310;2023-05-25T00:54:31;93981.19;;;15.20;94.38
28911;BME280;16028;42.642;23.310;2023-05-25T00:57:01;93989.22;;;15.19;94.64
28911;BME280;16028;42.642;23.310;2023-05-25T00:59:35;93985.97;;;15.17;94.83
28911;BME280;16028;42.642;23.310;2023-05-25T01:02:07;93980.25;;;15.13;94.63
28911;BME280;16028;42.642;23.310;2023-05-25T01:04:35;93978.81;;;15.11;94.43
28911;BME280;16028;42.642;23.310;2023-05-25T01:07:08;93983.41;;;15.09;94.20
28911;BME280;16028;42.642;23.310;2023-05-25T01:09:38;93986.38;;;15.06;94.36
28911;BME280;16028;42.642;23.310;2023-05-25T01:12:08;93989.34;;;15.03;94.43
28911;BME280;16028;42.642;23.310;2023-05-25T01:14:37;93992.28;;;15.00;94.78
28911;BME280;16028;42.642;23.310;2023-05-25T01:17:04;94006.22;;;15.00;95.04
28911;BME280;16028;42.642;23.310;2023-05-25T01:19:32;93992.13;;;15.01;94.92
28911;BME280;16028;42.642;23.310;2023-05-25T01:22:03;94000.50;;;14.97;95.14
28911;BME280;16028;42.642;23.310;2023-05-25T01:24:37;93991.53;;;14.91;95.59
28911;BME280;16028;42.642;23.310;2023-05-25T01:27:10;93986.66;;;14.88;95.19
28911;BME280;16028;42.642;23.310;2023-05-25T01:29:41;93985.22;;;14.86;95.11
28911;BME280;16028;42.642;23.310;2023-05-25T01:32:09;93985.72;;;14.81;94.67
28911;BME280;16028;42.642;23.310;2023-05-25T01:34:37;93986.72;;;14.80;94.54
28911;BME280;16028;42.642;23.310;2023-05-25T01:37:06;93985.72;;;14.81;94.27
28911;BME280;16028;42.642;23.310;2023-05-25T01:39:33;93983.44;;;14.78;93.87
28911;BME280;16028;42.642;23.310;2023-05-25T01:42:00;93980.00;;;14.77;94.08
28911;BME280;16028;42.642;23.310;2023-05-25T01:44:27;93968.56;;;14.78;94.37
28911;BME280;16028;42.642;23.310;2023-05-25T01:47:03;93964.28;;;14.77;93.98
28911;BME280;16028;42.642;23.310;2023-05-25T01:49:41;93961.88;;;14.76;94.04
28911;BME280;16028;42.642;23.310;2023-05-25T01:52:17;93952.56;;;14.73;94.58
28911;BME280;16028;42.642;23.310;2023-05-25T01:54:50;93962.03;;;14.74;94.55
28911;BME280;16028;42.642;23.310;2023-05-25T01:57:18;93957.81;;;14.73;94.79
28911;BME280;16028;42.642;23.310;2023-05-25T01:59:46;93950.94;;;14.72;95.06
28911;BME280;16028;42.642;23.310;2023-05-25T02:02:14;93953.53;;;14.72;95.07
28911;BME280;16028;42.642;23.310;2023-05-25T02:04:43;93957.31;;;14.70;95.04
28911;BME280;16028;42.642;23.310;2023-05-25T02:07:10;93960.94;;;14.69;95.29
28911;BME280;16028;42.642;23.310;2023-05-25T02:09:38;93960.56;;;14.72;95.36
28911;BME280;16028;42.642;23.310;2023-05-25T02:12:05;93969.25;;;14.72;94.81
28911;BME280;16028;42.642;23.310;2023-05-25T02:14:32;93972.69;;;14.73;94.84
28911;BME280;16028;42.642;23.310;2023-05-25T02:16:59;93973.03;;;14.70;94.87
28911;BME280;16028;42.642;23.310;2023-05-25T02:19:28;93976.00;;;14.67;95.15
28911;BME280;16028;42.642;23.310;2023-05-25T02:21:55;93981.75;;;14.62;95.30
28911;BME280;16028;42.642;23.310;2023-05-25T02:24:23;93982.44;;;14.56;95.35
28911;BME280;16028;42.642;23.310;2023-05-25T02:26:51;93987.53;;;14.50;96.38
28911;BME280;16028;42.642;23.310;2023-05-25T02:29:19;93985.81;;;14.42;96.54
28911;BME280;16028;42.642;23.310;2023-05-25T02:31:45;94002.00;;;14.38;96.78
28911;BME280;16028;42.642;23.310;2023-05-25T02:34:12;94005.44;;;14.38;96.83
28911;BME280;16028;42.642;23.310;2023-05-25T02:36:39;93997.41;;;14.40;96.64
28911;BME280;16028;42.642;23.310;2023-05-25T02:39:08;94007.22;;;14.38;96.03
28911;BME280;16028;42.642;23.310;2023-05-25T02:41:36;94008.56;;;14.34;96.17
28911;BME280;16028;42.642;23.310;2023-05-25T02:44:04;94008.56;;;14.25;96.40
28911;BME280;16028;42.642;23.310;2023-05-25T02:46:31;94009.38;;;14.26;96.96
28911;BME280;16028;42.642;23.310;2023-05-25T02:48:59;94015.59;;;14.25;97.81
28911;BME280;16028;42.642;23.310;2023-05-25T02:51:25;94026.06;;;14.25;97.90
28911;BME280;16028;42.642;23.310;2023-05-25T02:53:52;94015.25;;;14.28;98.14
28911;BME280;16028;42.642;23.310;2023-05-25T02:56:19;94023.75;;;14.30;97.69
28911;BME280;16028;42.642;23.310;2023-05-25T02:58:47;94019.84;;;14.26;98.15
28911;BME280;16028;42.642;23.310;2023-05-25T03:01:15;94023.78;;;14.22;98.25
28911;BME280;16028;42.642;23.310;2023-05-25T03:03:43;94020.06;;;14.16;98.53
28911;BME280;16028;42.642;23.310;2023-05-25T03:06:10;94024.97;;;14.11;98.76
28911;BME280;16028;42.642;23.310;2023-05-25T03:08:38;94025.47;;;14.07;99.41
28911;BME280;16028;42.642;23.310;2023-05-25T03:11:08;94032.03;;;14.03;99.99
28911;BME280;16028;42.642;23.310;2023-05-25T03:13:35;94029.22;;;14.04;99.71
28911;BME280;16028;42.642;23.310;2023-05-25T03:16:02;94024.81;;;14.05;99.77
28911;BME280;16028;42.642;23.310;2023-05-25T03:18:30;94025.47;;;14.07;99.96
28911;BME280;16028;42.642;23.310;2023-05-25T03:20:57;94030.72;;;14.07;100.00
28911;BME280;16028;42.642;23.310;2023-05-25T03:23:23;94026.13;;;14.09;100.00
28911;BME280;16028;42.642;23.310;2023-05-25T03:25:50;94028.41;;;14.12;100.00
28911;BME280;16028;42.642;23.310;2023-05-25T03:28:19;94027.41;;;14.13;99.82
28911;BME280;16028;42.642;23.310;2023-05-25T03:30:45;94025.44;;;14.15;99.83
28911;BME280;16028;42.642;23.310;2023-05-25T03:33:12;94033.94;;;14.17;100.00
28911;BME280;16028;42.642;23.310;2023-05-25T03:35:41;94035.56;;;14.18;100.00
28911;BME280;16028;42.642;23.310;2023-05-25T03:38:08;94031.31;;;14.17;100.00
28911;BME280;16028;42.642;23.310;2023-05-25T03:40:38;94039.97;;;14.17;100.00
28911;BME280;16028;42.642;23.310;2023-05-25T03:43:05;94038.19;;;14.18;100.00
28911;BME280;16028;42.642;23.310;2023-05-25T03:45:32;94038.03;;;14.19;100.00
28911;BME280;16028;42.642;23.310;2023-05-25T03:47:58;94027.38;;;14.21;100.00
28911;BME280;16028;42.642;23.310;2023-05-25T03:50:25;94034.88;;;14.24;100.00
28911;BME280;16028;42.642;23.310;2023-05-25T03:52:53;94029.31;;;14.27;100.00
28911;BME280;16028;42.642;23.310;2023-05-25T03:55:20;94028.16;;;14.29;100.00
28911;BME280;16028;42.642;23.310;2023-05-25T03:57:47;94033.91;;;14.33;100.00
28911;BME280;16028;42.642;23.310;2023-05-25T04:00:14;94037.81;;;14.37;100.00
28911;BME280;16028;42.642;23.310;2023-05-25T04:02:41;94044.00;;;14.44;100.00
28911;BME280;16028;42.642;23.310;2023-05-25T04:05:08;94036.31;;;14.51;100.00
28911;BME280;16028;42.642;23.310;2023-05-25T04:07:35;94033.63;;;14.59;100.00
28911;BME280;16028;42.642;23.310;2023-05-25T04:10:04;94046.84;;;14.65;100.00
28911;BME280;16028;42.642;23.310;2023-05-25T04:12:32;94041.75;;;14.72;100.00
28911;BME280;16028;42.642;23.310;2023-05-25T04:14:59;94052.00;;;14.81;100.00
28911;BME280;16028;42.642;23.310;2023-05-25T04:17:25;94053.34;;;15.08;100.00
28911;BME280;16028;42.642;23.310;2023-05-25T04:19:52;94055.06;;;15.38;98.55
28911;BME280;16028;42.642;23.310;2023-05-25T04:22:19;94056.00;;;15.54;97.24
28911;BME280;16028;42.642;23.310;2023-05-25T04:24:46;94064.25;;;15.65;96.76
28911;BME280;16028;42.642;23.310;2023-05-25T04:27:14;94056.91;;;15.61;97.17
28911;BME280;16028;42.642;23.310;2023-05-25T04:29:41;94062.59;;;15.64;98.46
28911;BME280;16028;42.642;23.310;2023-05-25T04:32:08;94060.56;;;15.89;96.84
28911;BME280;16028;42.642;23.310;2023-05-25T04:34:35;94069.56;;;15.95;97.29
28911;BME280;16028;42.642;23.310;2023-05-25T04:37:04;94077.34;;;16.03;97.93
28911;BME280;16028;42.642;23.310;2023-05-25T04:39:33;94076.91;;;16.28;96.65
28911;BME280;16028;42.642;23.310;2023-05-25T04:42:00;94079.94;;;16.69;92.31
28911;BME280;16028;42.642;23.310;2023-05-25T04:44:30;94081.44;;;16.93;90.10
28911;BME280;16028;42.642;23.310;2023-05-25T04:46:57;94085.16;;;16.99;87.53
28911;BME280;16028;42.642;23.310;2023-05-25T04:49:25;94077.53;;;16.89;89.57
28911;BME280;16028;42.642;23.310;2023-05-25T04:51:52;94079.81;;;16.92;90.30
28911;BME280;16028;42.642;23.310;2023-05-25T04:54:19;94074.16;;;17.10;89.29
28911;BME280;16028;42.642;23.310;2023-05-25T04:56:46;94066.72;;;17.13;89.47
28911;BME280;16028;42.642;23.310;2023-05-25T04:59:13;94066.00;;;17.05;87.29
28911;BME280;16028;42.642;23.310;2023-05-25T05:01:41;94063.56;;;17.03;87.96
28911;BME280;16028;42.642;23.310;2023-05-25T05:04:09;94058.22;;;17.32;87.75
28911;BME280;16028;42.642;23.310;2023-05-25T05:06:36;94062.81;;;17.45;85.25
28911;BME280;16028;42.642;23.310;2023-05-25T05:09:03;94052.25;;;17.60;84.87
28911;BME280;16028;42.642;23.310;2023-05-25T05:11:30;94054.41;;;17.77;84.60
28911;BME280;16028;42.642;23.310;2023-05-25T05:13:57;94057.34;;;18.17;81.49
28911;BME280;16028;42.642;23.310;2023-05-25T05:16:24;94051.78;;;18.33;79.86
28911;BME280;16028;42.642;23.310;2023-05-25T05:18:52;94054.19;;;18.28;84.70
28911;BME280;16028;42.642;23.310;2023-05-25T05:21:19;94054.22;;;18.62;80.72
28911;BME280;16028;42.642;23.310;2023-05-25T05:23:46;94056.06;;;18.68;79.54
28911;BME280;16028;42.642;23.310;2023-05-25T05:26:13;94053.03;;;18.71;80.79
28911;BME280;16028;42.642;23.310;2023-05-25T05:28:39;94059.00;;;18.52;80.34
28911;BME280;16028;42.642;23.310;2023-05-25T05:31:09;94065.16;;;18.38;81.87
28911;BME280;16028;42.642;23.310;2023-05-25T05:33:36;94064.75;;;18.62;78.51
28911;BME280;16028;42.642;23.310;2023-05-25T05:36:05;94078.59;;;18.77;78.34
28911;BME280;16028;42.642;23.310;2023-05-25T05:38:32;94073.94;;;18.73;79.30
28911;BME280;16028;42.642;23.310;2023-05-25T05:40:59;94071.69;;;18.70;79.33
28911;BME280;16028;42.642;23.310;2023-05-25T05:43:27;94072.41;;;18.98;78.42
28911;BME280;16028;42.642;23.310;2023-05-25T05:45:53;94072.88;;;19.15;79.05
28911;BME280;16028;42.642;23.310;2023-05-25T05:48:20;94078.19;;;19.28;77.15
28911;BME280;16028;42.642;23.310;2023-05-25T05:50:47;94084.91;;;19.30;74.19
28911;BME280;16028;42.642;23.310;2023-05-25T05:53:15;94086.50;;;19.25;76.74
28911;BME280;16028;42.642;23.310;2023-05-25T05:55:42;94089.97;;;19.32;75.87
28911;BME280;16028;42.642;23.310;2023-05-25T05:58:09;94085.59;;;19.45;73.87
28911;BME280;16028;42.642;23.310;2023-05-25T06:00:36;94090.63;;;19.40;75.11
28911;BME280;16028;42.642;23.310;2023-05-25T06:03:03;94090.38;;;19.29;76.68
28911;BME280;16028;42.642;23.310;2023-05-25T06:05:30;94095.03;;;19.20;77.43
28911;BME280;16028;42.642;23.310;2023-05-25T06:07:57;94093.41;;;19.26;78.36
28911;BME280;16028;42.642;23.310;2023-05-25T06:10:25;94089.97;;;19.32;79.27
28911;BME280;16028;42.642;23.310;2023-05-25T06:12:52;94086.72;;;19.23;77.68
28911;BME280;16028;42.642;23.310;2023-05-25T06:15:19;94086.31;;;19.26;76.14
28911;BME280;16028;42.642;23.310;2023-05-25T06:17:48;94080.41;;;19.24;75.81
28911;BME280;16028;42.642;23.310;2023-05-25T06:20:15;94088.47;;;19.10;76.71
28911;BME280;16028;42.642;23.310;2023-05-25T06:22:42;94091.53;;;19.13;75.88
28911;BME280;16028;42.642;23.310;2023-05-25T06:25:09;94082.56;;;19.55;78.26
28911;BME280;16028;42.642;23.310;2023-05-25T06:27:37;94085.22;;;19.88;75.02
28911;BME280;16028;42.642;23.310;2023-05-25T06:30:05;94094.81;;;20.48;72.36
28911;BME280;16028;42.642;23.310;2023-05-25T06:32:33;94094.94;;;20.79;68.34
28911;BME280;16028;42.642;23.310;2023-05-25T06:34:59;94094.56;;;20.63;70.72
28911;BME280;16028;42.642;23.310;2023-05-25T06:37:26;94090.88;;;20.83;69.06
28911;BME280;16028;42.642;23.310;2023-05-25T06:39:59;94098.50;;;21.18;67.58
28911;BME280;16028;42.642;23.310;2023-05-25T06:42:26;94093.34;;;21.36;66.40
28911;BME280;16028;42.642;23.310;2023-05-25T06:44:54;94089.25;;;21.40;66.64
28911;BME280;16028;42.642;23.310;2023-05-25T06:47:21;94089.72;;;21.24;66.82
28911;BME280;16028;42.642;23.310;2023-05-25T06:49:48;94093.03;;;21.13;69.28
28911;BME280;16028;42.642;23.310;2023-05-25T06:52:15;94089.44;;;21.38;67.39
28911;BME280;16028;42.642;23.310;2023-05-25T06:54:42;94098.13;;;21.52;67.33
28911;BME280;16028;42.642;23.310;2023-05-25T06:57:09;94084.91;;;21.90;65.96
28911;BME280;16028;42.642;23.310;2023-05-25T06:59:35;94094.34;;;22.10;64.92
28911;BME280;16028;42.642;23.310;2023-05-25T07:02:04;94096.50;;;22.20;65.94
28911;BME280;16028;42.642;23.310;2023-05-25T07:04:31;94093.47;;;22.41;65.70
28911;BME280;16028;42.642;23.310;2023-05-25T07:06:59;94094.88;;;22.69;63.95
28911;BME280;16028;42.642;23.310;2023-05-25T07:09:26;94091.34;;;22.75;62.71
28911;BME280;16028;42.642;23.310;2023-05-25T07:11:52;94089.59;;;22.69;64.13
28911;BME280;16028;42.642;23.310;2023-05-25T07:14:19;94088.75;;;22.43;65.41
28911;BME280;16028;42.642;23.310;2023-05-25T07:16:46;94086.59;;;22.34;67.28
28911;BME280;16028;42.642;23.310;2023-05-25T07:19:14;94080.38;;;22.22;65.95
28911;BME280;16028;42.642;23.310;2023-05-25T07:21:41;94082.16;;;22.03;68.08
28911;BME280;16028;42.642;23.310;2023-05-25T07:24:08;94075.34;;;21.89;67.70
28911;BME280;16028;42.642;23.310;2023-05-25T07:26:36;94087.78;;;21.82;70.45
28911;BME280;16028;42.642;23.310;2023-05-25T07:29:03;94090.00;;;21.85;66.20
28911;BME280;16028;42.642;23.310;2023-05-25T07:31:29;94094.72;;;21.76;66.90
28911;BME280;16028;42.642;23.310;2023-05-25T07:33:56;94090.69;;;21.74;69.04
28911;BME280;16028;42.642;23.310;2023-05-25T07:36:26;94100.72;;;21.65;68.86
28911;BME280;16028;42.642;23.310;2023-05-25T07:38:53;94102.94;;;21.68;66.28
28911;BME280;16028;42.642;23.310;2023-05-25T07:41:20;94098.06;;;21.65;67.05
28911;BME280;16028;42.642;23.310;2023-05-25T07:43:47;94100.09;;;21.70;67.11
28911;BME280;16028;42.642;23.310;2023-05-25T07:46:14;94102.09;;;21.74;67.40
28911;BME280;16028;42.642;23.310;2023-05-25T07:48:41;94100.81;;;21.83;67.54
28911;BME280;16028;42.642;23.310;2023-05-25T07:51:08;94095.63;;;21.63;67.11
28911;BME280;16028;42.642;23.310;2023-05-25T07:53:36;94103.66;;;21.50;67.85
28911;BME280;16028;42.642;23.310;2023-05-25T07:56:03;94105.09;;;21.46;66.70
28911;BME280;16028;42.642;23.310;2023-05-25T07:58:30;94107.19;;;21.38;66.18
28911;BME280;16028;42.642;23.310;2023-05-25T08:00:57;94112.28;;;21.33;63.79
28911;BME280;16028;42.642;23.310;2023-05-25T08:03:24;94117.44;;;21.08;65.90
28911;BME280;16028;42.642;23.310;2023-05-25T08:05:50;94116.69;;;20.81;68.01
28911;BME280;16028;42.642;23.310;2023-05-25T08:08:18;94115.28;;;20.72;67.14
28911;BME280;16028;42.642;23.310;2023-05-25T08:10:51;94123.47;;;20.64;67.12
28911;BME280;16028;42.642;23.310;2023-05-25T08:13:18;94128.13;;;20.69;68.01
28911;BME280;16028;42.642;23.310;2023-05-25T08:15:45;94135.03;;;20.63;68.24
28911;BME280;16028;42.642;23.310;2023-05-25T08:18:14;94135.28;;;20.48;67.54
28911;BME280;16028;42.642;23.310;2023-05-25T08:20:41;94142.97;;;20.30;68.40
28911;BME280;16028;42.642;23.310;2023-05-25T08:23:07;94140.72;;;20.21;69.73
28911;BME280;16028;42.642;23.310;2023-05-25T08:25:34;94151.69;;;20.18;69.20
28911;BME280;16028;42.642;23.310;2023-05-25T08:28:02;94162.66;;;20.01;69.95
28911;BME280;16028;42.642;23.310;2023-05-25T08:30:29;94168.06;;;19.74;73.71
28911;BME280;16028;42.642;23.310;2023-05-25T08:32:56;94175.72;;;19.49;75.38
28911;BME280;16028;42.642;23.310;2023-05-25T08:35:23;94185.88;;;19.18;76.72
28911;BME280;16028;42.642;23.310;2023-05-25T08:37:50;94185.47;;;18.80;77.98
28911;BME280;16028;42.642;23.310;2023-05-25T08:40:18;94191.88;;;18.71;78.36
28911;BME280;16028;42.642;23.310;2023-05-25T08:42:48;94195.84;;;18.54;79.61
28911;BME280;16028;42.642;23.310;2023-05-25T08:45:16;94188.63;;;18.47;78.71
28911;BME280;16028;42.642;23.310;2023-05-25T08:47:43;94201.41;;;18.44;78.31
28911;BME280;16028;42.642;23.310;2023-05-25T08:50:11;94201.16;;;18.39;84.73
28911;BME280;16028;42.642;23.310;2023-05-25T08:52:44;94208.75;;;18.27;88.25
28911;BME280;16028;42.642;23.310;2023-05-25T08:55:11;94210.13;;;18.02;88.17
28911;BME280;16028;42.642;23.310;2023-05-25T08:57:44;94215.56;;;17.79;89.63
28911;BME280;16028;42.642;23.310;2023-05-25T09:00:14;94212.16;;;17.64;91.50
28911;BME280;16028;42.642;23.310;2023-05-25T09:02:49;94217.69;;;17.55;93.48
28911;BME280;16028;42.642;23.310;2023-05-25T09:05:17;94207.63;;;17.58;95.90
28911;BME280;16028;42.642;23.310;2023-05-25T09:07:44;94206.09;;;17.64;100.00
28911;BME280;16028;42.642;23.310;2023-05-25T09:10:13;94218.84;;;17.52;93.32
28911;BME280;16028;42.642;23.310;2023-05-25T09:12:41;94214.16;;;17.48;94.54
28911;BME280;16028;42.642;23.310;2023-05-25T09:15:10;94218.69;;;17.39;93.27
28911;BME280;16028;42.642;23.310;2023-05-25T09:17:37;94224.84;;;17.46;97.42
28911;BME280;16028;42.642;23.310;2023-05-25T09:20:10;94215.34;;;17.45;95.98
28911;BME280;16028;42.642;23.310;2023-05-25T09:25:24;94213.84;;;17.07;94.02
28911;BME280;16028;42.642;23.310;2023-05-25T09:27:52;94213.28;;;16.82;95.04
28911;BME280;16028;42.642;23.310;2023-05-25T09:30:21;94208.00;;;16.67;97.15
28911;BME280;16028;42.642;23.310;2023-05-25T09:32:51;94207.75;;;16.62;96.49
28911;BME280;16028;42.642;23.310;2023-05-25T09:35:25;94212.81;;;16.64;96.89
28911;BME280;16028;42.642;23.310;2023-05-25T09:37:55;94206.38;;;16.66;96.98
28911;BME280;16028;42.642;23.310;2023-05-25T09:40:22;94202.94;;;16.66;95.60
28911;BME280;16028;42.642;23.310;2023-05-25T09:42:48;94203.22;;;16.71;96.83
28911;BME280;16028;42.642;23.310;2023-05-25T09:45:16;94186.00;;;16.68;96.04
28911;BME280;16028;42.642;23.310;2023-05-25T09:47:42;94189.38;;;16.77;96.59
28911;BME280;16028;42.642;23.310;2023-05-25T09:50:10;94192.34;;;16.88;98.18
28911;BME280;16028;42.642;23.310;2023-05-25T09:52:40;94186.38;;;16.94;99.12
28911;BME280;16028;42.642;23.310;2023-05-25T09:55:08;94173.78;;;16.90;98.19
28911;BME280;16028;42.642;23.310;2023-05-25T09:57:36;94172.44;;;16.94;98.76
28911;BME280;16028;42.642;23.310;2023-05-25T10:00:08;94163.63;;;17.02;99.12
28911;BME280;16028;42.642;23.310;2023-05-25T10:02:36;94166.63;;;17.13;99.96
28911;BME280;16028;42.642;23.310;2023-05-25T10:05:03;94157.06;;;17.27;99.57
28911;BME280;16028;42.642;23.310;2023-05-25T10:07:31;94160.59;;;17.34;97.77
28911;BME280;16028;42.642;23.310;2023-05-25T10:10:05;94158.41;;;17.37;97.67
28911;BME280;16028;42.642;23.310;2023-05-25T10:12:33;94157.84;;;17.57;100.00
28911;BME280;16028;42.642;23.310;2023-05-25T10:15:02;94148.13;;;17.78;100.00
28911;BME280;16028;42.642;23.310;2023-05-25T10:17:31;94142.56;;;18.09;100.00
28911;BME280;16028;42.642;23.310;2023-05-25T10:20:02;94143.03;;;18.19;96.84
28911;BME280;16028;42.642;23.310;2023-05-25T10:22:32;94146.38;;;18.28;98.09
28911;BME280;16028;42.642;23.310;2023-05-25T10:25:07;94139.84;;;18.24;99.96
28911;BME280;16028;42.642;23.310;2023-05-25T10:27:39;94139.75;;;18.38;96.64
28911;BME280;16028;42.642;23.310;2023-05-25T10:30:07;94138.31;;;18.36;96.70
28911;BME280;16028;42.642;23.310;2023-05-25T10:32:36;94135.50;;;18.37;99.33
28911;BME280;16028;42.642;23.310;2023-05-25T10:35:04;94130.00;;;18.60;96.43
28911;BME280;16028;42.642;23.310;2023-05-25T10:37:32;94121.72;;;18.63;96.08
28911;BME280;16028;42.642;23.310;2023-05-25T10:40:00;94122.50;;;18.64;97.42
28911;BME280;16028;42.642;23.310;2023-05-25T10:42:31;94119.47;;;18.60;97.45
28911;BME280;16028;42.642;23.310;2023-05-25T10:45:01;94114.44;;;18.65;95.99
28911;BME280;16028;42.642;23.310;2023-05-25T10:47:29;94110.16;;;18.64;96.31
28911;BME280;16028;42.642;23.310;2023-05-25T10:49:57;94097.22;;;18.69;97.00
28911;BME280;16028;42.642;23.310;2023-05-25T10:52:30;94098.88;;;18.77;95.66
28911;BME280;16028;42.642;23.310;2023-05-25T10:54:59;94094.50;;;18.97;93.54
28911;BME280;16028;42.642;23.310;2023-05-25T10:57:28;94093.75;;;19.10;89.48
28911;BME280;16028;42.642;23.310;2023-05-25T11:00:02;94083.03;;;19.18;91.88
28911;BME280;16028;42.642;23.310;2023-05-25T11:02:46;94080.00;;;19.14;89.48
28911;BME280;16028;42.642;23.310;2023-05-25T11:05:31;94082.19;;;19.11;89.65
28911;BME280;16028;42.642;23.310;2023-05-25T11:07:59;94084.78;;;18.97;87.26
28911;BME280;16028;42.642;23.310;2023-05-25T11:10:56;94083.69;;;18.79;90.21
28911;BME280;16028;42.642;23.310;2023-05-25T11:13:37;94078.06;;;18.88;91.60
28911;BME280;16028;42.642;23.310;2023-05-25T11:16:20;94087.06;;;19.07;87.33
28911;BME280;16028;42.642;23.310;2023-05-25T11:18:51;94089.88;;;19.06;86.67
28911;BME280;16028;42.642;23.310;2023-05-25T11:21:24;94094.72;;;19.02;88.39
28911;BME280;16028;42.642;23.310;2023-05-25T11:24:12;94092.84;;;18.89;84.63
28911;BME280;16028;42.642;23.310;2023-05-25T11:26:52;94094.28;;;18.85;86.06
28911;BME280;16028;42.642;23.310;2023-05-25T11:29:20;94098.91;;;18.83;87.66
28911;BME280;16028;42.642;23.310;2023-05-25T11:31:52;94096.50;;;18.88;87.23
28911;BME280;16028;42.642;23.310;2023-05-25T11:34:21;94093.22;;;18.80;88.62
28911;BME280;16028;42.642;23.310;2023-05-25T11:36:52;94091.81;;;18.84;86.24
28911;BME280;16028;42.642;23.310;2023-05-25T11:39:20;94091.78;;;18.77;88.34
28911;BME280;16028;42.642;23.310;2023-05-25T11:41:51;94090.56;;;18.80;89.61
28911;BME280;16028;42.642;23.310;2023-05-25T11:44:25;94094.53;;;19.03;86.09
28911;BME280;16028;42.642;23.310;2023-05-25T11:46:54;94096.38;;;19.10;84.29
28911;BME280;16028;42.642;23.310;2023-05-25T11:49:22;94098.25;;;19.16;87.34
28911;BME280;16028;42.642;23.310;2023-05-25T11:51:50;94094.28;;;19.39;82.66
28911;BME280;16028;42.642;23.310;2023-05-25T11:54:23;94091.06;;;19.44;82.38
28911;BME280;16028;42.642;23.310;2023-05-25T11:56:50;94094.72;;;19.43;81.57
28911;BME280;16028;42.642;23.310;2023-05-25T11:59:17;94090.63;;;19.40;83.10
28911;BME280;16028;42.642;23.310;2023-05-25T12:01:56;94084.34;;;19.41;82.32
28911;BME280;16028;42.642;23.310;2023-05-25T12:04:22;94082.25;;;19.37;80.84
28911;BME280;16028;42.642;23.310;2023-05-25T12:06:49;94084.13;;;19.36;81.74
28911;BME280;16028;42.642;23.310;2023-05-25T12:09:18;94087.00;;;19.48;77.58
28911;BME280;16028;42.642;23.310;2023-05-25T12:11:45;94076.47;;;19.54;77.34
28911;BME280;16028;42.642;23.310;2023-05-25T12:14:13;94089.44;;;19.56;77.38
28911;BME280;16028;42.642;23.310;2023-05-25T12:16:40;94082.53;;;19.48;77.23
28911;BME280;16028;42.642;23.310;2023-05-25T12:19:09;94092.25;;;19.41;78.16
28911;BME280;16028;42.642;23.310;2023-05-25T12:21:37;94081.94;;;19.40;79.08
28911;BME280;16028;42.642;23.310;2023-05-25T12:24:05;94076.81;;;19.38;77.97
28911;BME280;16028;42.642;23.310;2023-05-25T12:26:32;94068.94;;;19.45;76.89
28911;BME280;16028;42.642;23.310;2023-05-25T12:29:00;94071.16;;;19.48;76.48
28911;BME280;16028;42.642;23.310;2023-05-25T12:31:28;94058.81;;;19.48;80.96
28911;BME280;16028;42.642;23.310;2023-05-25T12:34:08;94059.44;;;19.70;76.57
28911;BME280;16028;42.642;23.310;2023-05-25T12:36:43;94054.34;;;19.88;73.72
28911;BME280;16028;42.642;23.310;2023-05-25T12:39:12;94059.22;;;19.91;73.94
28911;BME280;16028;42.642;23.310;2023-05-25T12:41:47;94051.53;;;19.90;73.00
28911;BME280;16028;42.642;23.310;2023-05-25T12:44:22;94046.44;;;19.82;78.52
28911;BME280;16028;42.642;23.310;2023-05-25T12:46:50;94048.47;;;19.93;80.49
28911;BME280;16028;42.642;23.310;2023-05-25T12:49:29;94026.31;;;20.20;80.75
28911;BME280;16028;42.642;23.310;2023-05-25T12:51:57;94027.09;;;20.53;80.26
28911;BME280;16028;42.642;23.310;2023-05-25T12:54:41;94017.41;;;20.85;70.40
28911;BME280;16028;42.642;23.310;2023-05-25T12:57:10;94014.53;;;20.93;71.14
28911;BME280;16028;42.642;23.310;2023-05-25T12:59:39;94016.09;;;21.07;64.80